Time;durP1;ratioP1;P1;durP2;ratioP2;P2;SDS_P1;SDS_P2;PMS_P1;PMS_P2;Temp;Humidity;BMP_temperature;BMP_pressure;BME280_temperature;BME280_humidity;BME280_pressure;Samples;Min_cycle;Max_cycle;Signal;HPM_P1;HPM_P2
2022/02/06 00:00:14;;;;;;;22.25;5.63;;;;;;;5.68;100.00;101111.31;5092040;28;20031;-71
2022/02/06 00:02:44;;;;;;;21.95;5.90;;;;;;;5.60;100.00;101087.50;5091380;28;20494;-71
2022/02/06 00:05:11;;;;;;;28.17;6.32;;;;;;;5.65;100.00;101103.38;5091891;28;20035;-71
2022/02/06 00:07:36;;;;;;;25.58;5.68;;;;;;;5.60;100.00;101103.25;5091921;28;20023;-70
2022/02/06 00:10:02;;;;;;;25.70;6.20;;;;;;;5.49;100.00;101071.47;5091273;28;20020;-70
2022/02/06 00:12:27;;;;;;;26.70;6.57;;;;;;;5.47;100.00;101074.88;5091710;28;20024;-71
2022/02/06 00:14:53;;;;;;;26.35;6.63;;;;;;;5.42;100.00;101053.78;5091588;28;20020;-70
2022/02/06 00:17:18;;;;;;;24.60;6.25;;;;;;;5.43;100.00;101046.78;5091572;28;20020;-71
2022/02/06 00:19:44;;;;;;;24.10;6.43;;;;;;;5.57;100.00;101048.97;5091521;28;20063;-71
2022/02/06 00:22:13;;;;;;;24.85;5.47;;;;;;;5.63;100.00;101063.09;5090656;28;20111;-71
2022/02/06 00:27:09;;;;;;;21.95;5.50;;;;;;;5.70;100.00;101039.69;5092284;28;20119;-71
2022/02/06 00:29:59;;;;;;;24.70;5.43;;;;;;;5.65;100.00;101011.56;5088705;28;20039;-71
2022/02/06 00:32:46;;;;;;;24.63;5.55;;;;;;;5.66;100.00;101026.47;5090842;28;20485;-71
2022/02/06 00:35:39;;;;;;;24.58;5.60;;;;;;;5.72;100.00;101039.75;5089079;28;20463;-71
2022/02/06 00:43:13;;;;;;;23.88;5.53;;;;;;;5.68;100.00;101009.00;5047300;28;20423;-74
2022/02/06 00:45:38;;;;;;;26.55;5.85;;;;;;;5.68;100.00;100998.53;5048281;28;20049;-74
2022/02/06 00:48:04;;;;;;;24.52;5.30;;;;;;;5.70;100.00;100996.84;5048823;28;20045;-74
2022/02/06 00:50:30;;;;;;;23.38;5.40;;;;;;;5.70;100.00;101002.09;5048853;28;20127;-74
2022/02/06 00:53:08;;;;;;;23.98;5.50;;;;;;;5.67;100.00;100988.91;5048390;28;20450;-74
2022/02/06 00:55:34;;;;;;;22.90;5.68;;;;;;;5.68;100.00;100981.06;5049064;28;20075;-75
2022/02/06 00:58:00;;;;;;;21.38;5.45;;;;;;;5.66;100.00;100974.88;5048556;28;20057;-73
2022/02/06 01:00:26;;;;;;;23.08;5.57;;;;;;;5.65;100.00;100965.25;5048667;28;20091;-74
2022/02/06 01:02:52;;;;;;;24.90;6.25;;;;;;;5.62;100.00;100954.69;5048553;28;20033;-74
2022/02/06 01:05:18;;;;;;;25.27;6.30;;;;;;;5.62;100.00;100966.91;5048510;28;20021;-76
2022/02/06 01:07:43;;;;;;;24.35;6.45;;;;;;;5.58;100.00;100972.06;5048499;28;20033;-73
2022/02/06 01:10:10;;;;;;;24.10;6.18;;;;;;;5.57;100.00;100969.41;5035039;28;20025;-74
2022/02/06 01:12:38;;;;;;;25.40;6.55;;;;;;;5.54;100.00;100966.69;5048195;28;20045;-74
2022/02/06 01:15:09;;;;;;;22.85;6.47;;;;;;;5.63;100.00;100966.06;5048635;28;20100;-74
2022/02/06 01:17:45;;;;;;;25.17;6.15;;;;;;;5.61;100.00;100965.09;5048623;28;20900;-74
2022/02/06 01:23:06;;;;;;;23.65;6.28;;;;;;;5.52;100.00;100940.44;5045966;28;20044;-78
2022/02/06 01:25:43;;;;;;;25.23;6.60;;;;;;;5.50;100.00;100941.25;5048601;28;20037;-77
2022/02/06 01:28:13;;;;;;;24.83;6.32;;;;;;;5.49;100.00;100942.06;5048469;28;20045;-77
2022/02/06 01:30:51;;;;;;;22.85;6.43;;;;;;;5.46;100.00;100937.66;5047822;28;20039;-78
2022/02/06 01:33:27;;;;;;;26.88;6.68;;;;;;;5.44;100.00;100949.81;5048198;28;20043;-79
2022/02/06 01:36:03;;;;;;;27.30;6.55;;;;;;;5.44;100.00;100934.09;5047601;28;20084;-78
2022/02/06 01:41:20;;;;;;;21.63;6.10;;;;;;;5.37;100.00;100932.16;5027215;28;20038;-78
2022/02/06 01:43:52;;;;;;;23.70;6.00;;;;;;;5.34;100.00;100950.41;5027477;28;20037;-79
2022/02/06 01:46:38;;;;;;;22.50;6.03;;;;;;;5.37;100.00;100924.28;5027659;28;20041;-79
2022/02/06 02:47:51;;;;;;;26.10;6.45;;;;;;;5.23;100.00;100826.94;5091106;28;20070;-80
2022/02/06 02:50:21;;;;;;;20.73;5.75;;;;;;;5.26;100.00;100868.06;5092201;28;20020;-79
2022/02/06 02:53:00;;;;;;;25.23;6.70;;;;;;;5.20;100.00;100843.47;5091350;28;20489;-81
2022/02/06 02:55:47;;;;;;;25.48;6.57;;;;;;;5.22;100.00;100818.19;5092242;28;20481;-80
2022/02/06 03:00:51;;;;;;;25.23;6.82;;;;;;;5.20;100.00;100816.38;5092398;28;20036;-79
2022/02/06 03:03:21;;;;;;;24.77;6.88;;;;;;;5.15;100.00;100805.75;5089989;28;20024;-81
2022/02/06 03:05:49;;;;;;;23.88;7.25;;;;;;;5.11;100.00;100824.00;5093019;28;20020;-79
2022/02/06 03:08:15;;;;;;;25.58;6.70;;;;;;;5.15;100.00;100797.91;5093085;28;20032;-81
2022/02/06 03:10:42;;;;;;;24.05;6.82;;;;;;;5.17;100.00;100795.31;5092144;28;20031;-80
2022/02/06 03:13:11;;;;;;;25.27;6.88;;;;;;;5.12;100.00;100789.97;5093165;28;20028;-79
2022/02/06 03:18:15;;;;;;;22.80;6.47;;;;;;;5.17;100.00;100774.34;5091059;28;20039;-79
2022/02/06 03:20:40;;;;;;;22.95;6.88;;;;;;;5.19;100.00;100783.16;5090693;28;20044;-79
2022/02/06 03:23:07;;;;;;;23.92;7.03;;;;;;;5.15;100.00;100762.94;5092672;28;20043;-80
2022/02/06 03:25:35;;;;;;;22.63;6.45;;;;;;;5.17;100.00;100756.00;5089846;28;20532;-80
2022/02/06 03:28:02;;;;;;;21.88;6.50;;;;;;;5.19;100.00;100767.44;5092781;28;20024;-80
2022/02/06 03:30:29;;;;;;;23.23;6.93;;;;;;;5.19;100.00;100754.31;5092929;28;20028;-80
2022/02/06 03:32:55;;;;;;;21.60;6.68;;;;;;;5.21;100.00;100750.91;5092362;28;20043;-80
2022/02/06 03:35:21;;;;;;;24.60;6.65;;;;;;;5.21;100.00;100748.28;5090619;28;20111;-80
2022/02/06 03:37:47;;;;;;;25.65;7.13;;;;;;;5.17;100.00;100749.03;5090581;28;20123;-81
2022/02/06 03:40:21;;;;;;;23.77;7.55;;;;;;;5.18;100.00;100744.69;5092214;28;20111;-81
2022/02/06 03:43:26;;;;;;;26.02;7.65;;;;;;;5.18;100.00;100749.91;5090294;28;20028;-82
2022/02/06 03:45:47;;;;;;;24.52;8.32;;;;;;;5.14;100.00;100748.97;5089624;28;20504;-81
2022/02/06 03:48:21;;;;;;;25.45;8.50;;;;;;;5.12;100.00;100741.91;5091497;28;20110;-81
2022/02/06 03:50:50;;;;;;;24.17;8.32;;;;;;;5.17;100.00;100745.50;5092028;28;20398;-79
2022/02/06 03:53:19;;;;;;;22.58;8.25;;;;;;;5.16;100.00;100731.53;5092140;28;20016;-81
2022/02/06 03:55:47;;;;;;;26.02;8.57;;;;;;;5.20;100.00;100741.25;5091903;28;20050;-81
2022/02/06 03:58:12;;;;;;;23.48;8.32;;;;;;;5.21;100.00;100732.56;5092211;28;20036;-80
2022/02/06 04:00:37;;;;;;;24.52;8.65;;;;;;;5.22;100.00;100728.19;5091735;28;20027;-81
2022/02/06 04:03:04;;;;;;;24.80;8.38;;;;;;;5.17;100.00;100743.81;5091145;28;21920;-81
2022/02/06 04:05:30;;;;;;;26.80;9.07;;;;;;;5.17;100.00;100686.16;5091987;28;20467;-81
2022/02/06 04:07:55;;;;;;;23.67;8.80;;;;;;;5.16;100.00;100715.81;5091755;28;20046;-81
2022/02/06 04:10:20;;;;;;;24.73;8.20;;;;;;;5.22;100.00;100689.75;5091862;28;20420;-81
2022/02/06 04:12:48;;;;;;;22.15;7.97;;;;;;;5.26;100.00;100681.94;5090969;28;20020;-73
2022/02/06 04:15:26;;;;;;;24.17;8.63;;;;;;;5.23;100.00;100702.00;5091781;28;20046;-82
2022/02/06 04:18:08;;;;;;;22.48;7.57;;;;;;;5.28;100.00;100698.63;5090025;28;20032;-81
2022/02/06 04:20:33;;;;;;;23.65;7.80;;;;;;;5.30;100.00;100686.41;5090334;28;20024;-82
2022/02/06 04:22:58;;;;;;;23.92;8.32;;;;;;;5.27;100.00;100683.72;5090987;28;20467;-82
2022/02/06 04:25:24;;;;;;;25.85;8.65;;;;;;;5.29;100.00;100692.53;5091408;28;20032;-82
2022/02/06 04:27:49;;;;;;;24.83;7.50;;;;;;;5.33;100.00;100674.28;5091434;28;20097;-81
2022/02/06 04:30:14;;;;;;;21.70;8.07;;;;;;;5.35;100.00;100663.84;5090073;28;20042;-82
2022/02/06 04:32:40;;;;;;;23.25;8.38;;;;;;;5.33;100.00;100668.13;5091094;28;20024;-81
2022/02/06 04:35:09;;;;;;;23.65;7.85;;;;;;;5.35;100.00;100656.84;5091568;28;20024;-82
2022/02/06 04:37:54;;;;;;;23.05;8.10;;;;;;;5.36;100.00;100653.38;5090641;28;20028;-78
2022/02/06 04:43:37;;;;;;;22.85;7.90;;;;;;;5.36;100.00;100636.78;5021529;28;20412;-80
2022/02/06 04:46:39;;;;;;;22.67;7.95;;;;;;;5.39;100.00;100645.59;5015234;28;20202;-80
2022/02/06 04:52:18;;;;;;;24.85;8.20;;;;;;;5.42;100.00;100634.28;4997039;28;20559;-71
2022/02/06 05:16:39;;;;;;;21.65;7.47;;;;;;;5.48;100.00;100589.84;4998590;28;20109;-71
2022/02/06 05:30:03;;;;;;;24.83;9.18;;;;;;;5.46;100.00;100573.19;5037641;28;20045;-78
2022/02/06 05:33:11;;;;;;;23.83;8.43;;;;;;;5.50;100.00;100553.16;5042202;28;20049;-79
2022/02/06 05:35:17;;;;;;;23.75;8.88;;;;;;;5.49;100.00;100547.03;5039389;28;20029;-80
2022/02/06 05:37:42;;;;;;;23.50;8.25;;;;;;;5.47;100.00;100548.72;5022453;28;20033;-79
2022/02/06 05:40:08;;;;;;;22.63;8.20;;;;;;;5.48;100.00;100541.78;5042319;28;20144;-79
2022/02/06 05:42:34;;;;;;;23.52;8.95;;;;;;;5.43;100.00;100540.78;5039143;28;20469;-80
2022/02/06 05:44:59;;;;;;;22.98;7.97;;;;;;;5.47;100.00;100548.72;5038119;28;21328;-80
2022/02/06 05:47:26;;;;;;;22.77;8.85;;;;;;;5.44;100.00;100537.31;5042978;28;20029;-79
2022/02/06 05:49:52;;;;;;;22.65;8.80;;;;;;;5.44;100.00;100530.31;5039237;28;20485;-79
2022/02/06 05:52:19;;;;;;;23.67;9.00;;;;;;;5.44;100.00;100542.56;5044407;28;20175;-78
2022/02/06 05:54:44;;;;;;;22.95;8.57;;;;;;;5.46;100.00;100530.34;5041107;28;20037;-79
2022/02/06 05:57:10;;;;;;;22.42;8.75;;;;;;;5.45;100.00;100534.72;5089168;28;20077;-78
2022/02/06 05:59:36;;;;;;;23.15;8.73;;;;;;;5.48;100.00;100540.03;5094194;28;20020;-79
2022/02/06 06:02:01;;;;;;;24.50;8.80;;;;;;;5.49;100.00;100517.28;5093481;28;20378;-77
2022/02/06 06:04:26;;;;;;;22.70;8.15;;;;;;;5.54;100.00;100526.16;5094481;28;20024;-78
2022/02/06 06:06:52;;;;;;;24.55;8.95;;;;;;;5.51;100.00;100542.69;5094158;28;20501;-79
2022/02/06 06:09:17;;;;;;;24.90;9.15;;;;;;;5.50;100.00;100512.06;5093988;28;20028;-77
2022/02/06 06:11:43;;;;;;;23.63;8.55;;;;;;;5.52;100.00;100502.53;5093670;28;20076;-81
2022/02/06 06:14:08;;;;;;;23.08;9.10;;;;;;;5.53;100.00;100501.69;5093616;28;20097;-79
2022/02/06 06:16:34;;;;;;;24.08;9.65;;;;;;;5.53;100.00;100527.00;5094161;28;20046;-79
2022/02/06 06:19:01;;;;;;;26.00;9.55;;;;;;;5.55;100.00;100513.06;5094296;28;20024;-78
2022/02/06 06:21:28;;;;;;;23.50;9.10;;;;;;;5.58;100.00;100517.50;5092515;28;20067;-73
2022/02/06 06:23:55;;;;;;;23.98;9.13;;;;;;;5.59;100.00;100501.78;5092481;28;20036;-74
2022/02/06 06:26:22;;;;;;;24.48;9.60;;;;;;;5.61;100.00;100478.22;5092198;28;20024;-74
2022/02/06 06:28:48;;;;;;;24.17;9.07;;;;;;;5.62;100.00;100468.59;5092320;28;20028;-77
2022/02/06 06:31:13;;;;;;;23.73;9.45;;;;;;;5.61;100.00;100475.59;5093602;28;20032;-75
2022/02/06 06:33:38;;;;;;;22.95;9.35;;;;;;;5.66;100.00;100475.66;5093527;28;20021;-82
2022/02/06 06:36:05;;;;;;;24.10;9.25;;;;;;;5.68;100.00;100473.94;5093426;28;20099;-79
2022/02/06 06:38:33;;;;;;;24.08;8.63;;;;;;;5.69;100.00;100489.72;5093259;28;20020;-79
2022/02/06 06:40:58;;;;;;;23.42;9.23;;;;;;;5.69;100.00;100475.72;5091949;28;20455;-81
2022/02/06 06:43:23;;;;;;;23.92;8.80;;;;;;;5.72;100.00;100460.94;5093874;28;20024;-79
2022/02/06 06:45:49;;;;;;;23.15;8.45;;;;;;;5.76;100.00;100461.88;5093474;28;20426;-78
2022/02/06 06:48:14;;;;;;;23.65;8.65;;;;;;;5.74;100.00;100448.72;5093380;28;20459;-77
2022/02/06 06:50:39;;;;;;;23.20;9.00;;;;;;;5.81;100.00;100454.97;5092976;28;20020;-79
2022/02/06 06:53:06;;;;;;;23.02;8.73;;;;;;;5.78;100.00;100454.03;5092936;28;20024;-77
2022/02/06 06:55:35;;;;;;;22.48;8.88;;;;;;;5.78;100.00;100462.75;5093107;28;20040;-81
2022/02/06 07:03:21;;;;;;;23.08;9.15;;;;;;;5.80;100.00;100429.59;5093004;28;20416;-77
2022/02/06 07:05:47;;;;;;;22.27;8.73;;;;;;;5.82;100.00;100440.97;5092969;28;20103;-78
2022/02/06 07:08:15;;;;;;;23.15;9.00;;;;;;;5.81;100.00;100436.63;5092911;28;20047;-76
2022/02/06 07:10:41;;;;;;;22.42;8.68;;;;;;;5.86;100.00;100439.31;5089953;28;20455;-77
2022/02/06 07:13:06;;;;;;;23.95;9.07;;;;;;;5.84;100.00;100407.81;5092627;28;20047;-79
2022/02/06 07:15:31;;;;;;;24.17;9.57;;;;;;;5.81;100.00;100417.34;5092761;28;20028;-80
2022/02/06 07:17:58;;;;;;;26.00;9.20;;;;;;;5.83;100.00;100399.91;5091285;28;20027;-80
2022/02/06 07:20:23;;;;;;;24.35;10.07;;;;;;;5.82;100.00;100399.00;5092653;28;20030;-79
2022/02/06 07:22:48;;;;;;;23.75;9.25;;;;;;;5.81;100.00;100397.28;5092089;28;20047;-77
2022/02/06 07:25:14;;;;;;;23.08;9.32;;;;;;;5.83;100.00;100387.66;5092583;28;20550;-79
2022/02/06 07:27:44;;;;;;;24.25;9.75;;;;;;;5.83;100.00;100384.19;5092367;28;20066;-79
2022/02/06 07:30:10;;;;;;;22.27;7.80;;;;;;;5.87;100.00;100386.88;5091527;28;20446;-79
2022/02/06 07:32:38;;;;;;;23.70;9.68;;;;;;;5.86;100.00;100385.09;5092299;28;20467;-79
2022/02/06 07:35:05;;;;;;;21.42;9.27;;;;;;;5.85;100.00;100370.19;5092411;28;20034;-82
2022/02/06 07:37:31;;;;;;;23.25;9.35;;;;;;;5.83;100.00;100361.44;5092189;28;20043;-80
2022/02/06 07:39:56;;;;;;;23.42;8.63;;;;;;;5.84;100.00;100365.84;5092252;28;20024;-78
2022/02/06 07:42:22;;;;;;;23.30;8.50;;;;;;;5.79;100.00;100336.00;5092019;28;20025;-76
2022/02/06 07:44:49;;;;;;;22.35;8.65;;;;;;;5.83;100.00;100366.69;5092298;28;20527;-78
2022/02/06 07:47:20;;;;;;;23.13;8.57;;;;;;;5.83;100.00;100345.69;5092155;28;20411;-79
2022/02/06 07:49:49;;;;;;;23.15;8.77;;;;;;;5.82;100.00;100327.31;5091303;28;20074;-84
2022/02/06 07:52:16;;;;;;;22.27;8.57;;;;;;;5.82;100.00;100330.81;5091558;28;20031;-76
2022/02/06 07:54:42;;;;;;;20.42;7.88;;;;;;;5.85;100.00;100333.47;5089910;28;20030;-75
2022/02/06 07:57:07;;;;;;;22.92;8.43;;;;;;;5.78;100.00;100312.38;5090284;28;20024;-73
2022/02/06 07:59:34;;;;;;;21.98;8.70;;;;;;;5.80;100.00;100319.41;5091615;28;20102;-74
2022/02/06 08:02:00;;;;;;;22.67;8.30;;;;;;;5.86;100.00;100301.16;5091110;28;20126;-73
2022/02/06 08:04:26;;;;;;;23.65;8.68;;;;;;;5.85;100.00;100299.38;5091855;28;20032;-72
2022/02/06 08:06:51;;;;;;;21.83;7.78;;;;;;;5.86;100.00;100289.78;5091785;28;20494;-73
2022/02/06 08:09:24;;;;;;;24.17;9.07;;;;;;;5.86;100.00;100290.66;5092264;28;20024;-73
2022/02/06 08:11:50;;;;;;;;;;;;;;;6.07;100.00;100278.72;5091592;28;20520;-72
2022/02/06 08:14:49;;;;;;;22.23;8.43;;;;;;;5.90;100.00;100258.34;5091518;28;19912;-73
2022/02/06 08:17:01;;;;;;;23.15;8.15;;;;;;;5.96;100.00;100270.69;5090980;28;20032;-72
2022/02/06 08:19:27;;;;;;;24.45;9.05;;;;;;;5.95;100.00;100274.16;5091643;28;20039;-75
2022/02/06 08:21:52;;;;;;;23.40;8.88;;;;;;;5.99;100.00;100280.38;5090971;28;20040;-74
2022/02/06 08:24:17;;;;;;;23.25;8.20;;;;;;;6.03;100.00;100250.66;5091308;28;20236;-74
2022/02/06 08:26:43;;;;;;;23.67;8.55;;;;;;;5.99;100.00;100254.16;5091211;28;20035;-75
2022/02/06 08:29:09;;;;;;;22.40;8.65;;;;;;;5.97;100.00;100240.06;5091948;28;20024;-73
2022/02/06 08:31:34;;;;;;;25.40;8.82;;;;;;;6.01;100.00;100241.91;5091326;28;20716;-74
2022/02/06 08:34:00;;;;;;;23.20;8.57;;;;;;;6.02;100.00;100231.44;5091838;28;20065;-72
2022/02/06 08:36:25;;;;;;;24.17;8.40;;;;;;;6.06;100.00;100217.50;5091371;28;20482;-75
2022/02/06 08:38:50;;;;;;;24.17;8.68;;;;;;;6.02;100.00;100212.19;5089340;28;20032;-73
2022/02/06 08:41:16;;;;;;;21.88;7.80;;;;;;;6.08;100.00;100205.25;5091264;28;20024;-73
2022/02/06 08:43:41;;;;;;;22.65;8.50;;;;;;;6.08;100.00;100201.78;5091443;28;20109;-74
2022/02/06 08:46:06;;;;;;;22.65;8.25;;;;;;;6.05;100.00;100193.88;5091098;28;20173;-74
2022/02/06 08:48:32;;;;;;;20.88;7.93;;;;;;;6.11;100.00;100175.56;5091140;28;20526;-74
2022/02/06 08:50:57;;;;;;;22.05;7.32;;;;;;;6.13;100.00;100175.56;5090272;28;20028;-75
2022/02/06 08:53:22;;;;;;;20.98;7.07;;;;;;;6.14;100.00;100149.34;5091178;28;20023;-76
2022/02/06 08:55:49;;;;;;;21.15;6.88;;;;;;;6.17;100.00;100162.50;5091139;28;20114;-75
2022/02/06 08:58:15;;;;;;;21.55;6.47;;;;;;;6.21;100.00;100160.81;5091535;28;20027;-76
2022/02/06 09:00:41;;;;;;;21.08;6.85;;;;;;;6.21;100.00;100143.31;5092591;28;20032;-75
2022/02/06 09:03:06;;;;;;;22.35;6.95;;;;;;;6.19;100.00;100145.03;5095420;28;20391;-75
2022/02/06 09:05:33;;;;;;;22.05;7.07;;;;;;;6.18;100.00;100138.03;5096824;28;20070;-77
2022/02/06 09:07:59;;;;;;;22.50;7.10;;;;;;;6.19;100.00;100137.16;5096758;28;20027;-75
2022/02/06 09:10:24;;;;;;;22.42;6.90;;;;;;;6.20;100.00;100127.53;5096567;28;20032;-76
2022/02/06 09:12:54;;;;;;;21.42;6.63;;;;;;;6.20;100.00;100107.41;5096576;28;20028;-75
2022/02/06 09:15:21;;;;;;;21.80;6.80;;;;;;;6.24;100.00;100108.34;5092768;28;20084;-75
2022/02/06 09:17:46;;;;;;;20.52;5.88;;;;;;;6.25;100.00;100129.34;5092701;28;20429;-75
2022/02/06 09:20:13;;;;;;;20.52;6.45;;;;;;;6.23;100.00;100094.34;5096316;28;20107;-80
2022/02/06 09:22:41;;;;;;;21.38;6.15;;;;;;;6.26;100.00;100094.38;5096260;28;20036;-81
2022/02/06 09:25:07;;;;;;;18.83;6.00;;;;;;;6.26;100.00;100081.25;5096525;28;20028;-76
2022/02/06 09:27:36;;;;;;;21.40;6.10;;;;;;;6.24;100.00;100087.34;5096070;28;20378;-78
2022/02/06 09:30:12;;;;;;;19.27;5.53;;;;;;;6.22;100.00;100081.22;5096058;28;20510;-75
2022/02/06 09:37:33;;;;;;;19.35;5.95;;;;;;;6.19;100.00;100055.81;5096013;28;20036;-78
2022/02/06 09:39:59;;;;;;;21.45;6.15;;;;;;;6.20;100.00;100060.16;5095923;28;20020;-75
2022/02/06 09:42:27;;;;;;;19.02;5.60;;;;;;;6.21;100.00;100055.81;5096110;28;20039;-79
2022/02/06 09:44:53;;;;;;;20.30;6.10;;;;;;;6.18;100.00;100054.03;5096014;28;20382;-76
2022/02/06 09:47:29;;;;;;;18.90;5.93;;;;;;;6.15;100.00;100040.03;5096010;28;20024;-82
2022/02/06 09:49:55;;;;;;;20.50;6.07;;;;;;;6.13;100.00;100040.00;5093166;28;20046;-81
2022/02/06 09:52:27;;;;;;;17.92;5.13;;;;;;;6.22;100.00;100031.34;5095900;28;20111;-81
2022/02/06 09:54:54;;;;;;;19.60;5.07;;;;;;;6.25;100.00;100040.13;5092401;28;20032;-82
2022/02/06 09:57:26;;;;;;;17.45;5.00;;;;;;;6.22;100.00;100021.72;5095948;28;20027;-84
2022/02/06 09:59:54;;;;;;;18.52;5.20;;;;;;;6.21;100.00;100005.97;5092125;28;20413;-82
2022/02/06 10:02:24;;;;;;;19.08;4.93;;;;;;;6.23;100.00;99994.63;5095567;28;20463;-84
2022/02/06 10:04:50;;;;;;;18.85;4.82;;;;;;;6.23;100.00;99991.09;5095346;28;20486;-80
2022/02/06 10:07:27;;;;;;;18.02;4.70;;;;;;;6.23;100.00;99976.25;5095508;28;20043;-82
2022/02/06 10:10:01;;;;;;;16.77;4.55;;;;;;;6.23;100.00;99983.22;5095435;28;20505;-82
2022/02/06 10:12:30;;;;;;;17.80;4.60;;;;;;;6.22;100.00;99974.47;5094894;28;20483;-79
2022/02/06 10:14:56;;;;;;;20.10;4.75;;;;;;;6.24;100.00;99940.34;5095251;28;20032;-80
2022/02/06 10:17:24;;;;;;;18.75;5.15;;;;;;;6.23;100.00;99943.84;5095542;28;20034;-77
2022/02/06 10:19:53;;;;;;;19.05;4.85;;;;;;;6.25;100.00;99927.25;5095111;28;20031;-86
2022/02/06 10:22:49;;;;;;;19.85;5.00;;;;;;;6.20;100.00;99955.19;5090594;28;20040;-78
2022/02/06 10:25:16;;;;;;;18.00;5.15;;;;;;;6.20;100.00;99944.69;5093702;28;20020;-81
2022/02/06 10:27:49;;;;;;;18.15;4.72;;;;;;;6.23;100.00;99930.72;5094351;28;20024;-79
2022/02/06 10:30:38;;;;;;;17.20;5.07;;;;;;;6.20;100.00;99922.81;5092096;28;20024;-84
2022/02/06 10:33:09;;;;;;;18.30;5.22;;;;;;;6.17;100.00;99922.81;5090673;28;20364;-76
2022/02/06 10:35:55;;;;;;;16.83;4.63;;;;;;;6.25;100.00;99919.38;5090148;28;20088;-74
2022/02/06 10:38:29;;;;;;;21.45;5.10;;;;;;;6.22;100.00;99900.13;5093055;28;20040;-77
2022/02/06 10:41:08;;;;;;;18.85;4.80;;;;;;;6.27;100.00;99883.50;5093331;28;20508;-75
2022/02/06 10:43:35;;;;;;;19.40;5.28;;;;;;;6.17;100.00;99865.94;5090172;28;20073;-75
2022/02/06 10:46:11;;;;;;;18.42;5.20;;;;;;;6.22;100.00;99874.72;5089834;28;20529;-76
2022/02/06 10:48:45;;;;;;;19.67;4.93;;;;;;;6.26;100.00;99868.66;5090887;28;20351;-75
2022/02/06 10:51:36;;;;;;;18.02;5.45;;;;;;;6.26;100.00;99870.38;5093342;28;20020;-75
2022/02/06 10:54:04;;;;;;;17.20;5.00;;;;;;;6.25;100.00;99853.75;5093948;28;20027;-79
2022/02/06 10:56:29;;;;;;;19.33;5.43;;;;;;;6.23;100.00;99831.88;5093472;28;20067;-80
2022/02/06 10:58:59;;;;;;;19.75;5.85;;;;;;;6.25;100.00;99826.63;5093421;28;20032;-81
2022/02/06 11:01:26;;;;;;;17.38;4.47;;;;;;;6.28;100.00;99810.91;5093548;28;20032;-74
2022/02/06 11:04:25;;;;;;;16.70;4.85;;;;;;;6.30;100.00;99838.03;5093112;28;20019;-79
2022/02/06 11:07:05;;;;;;;17.02;5.05;;;;;;;6.30;100.00;99813.53;5092368;28;20032;-78
2022/02/06 11:09:31;;;;;;;19.48;5.47;;;;;;;6.27;100.00;99809.13;5089454;28;20031;-79
2022/02/06 11:12:03;;;;;;;20.13;5.78;;;;;;;6.25;100.00;99795.16;5093184;28;20032;-79
2022/02/06 11:14:31;;;;;;;19.45;5.00;;;;;;;6.27;100.00;99790.78;5093252;28;20395;-74
2022/02/06 11:16:57;;;;;;;21.13;5.80;;;;;;;6.26;100.00;99771.53;5093495;28;20058;-74
2022/02/06 11:19:23;;;;;;;19.35;5.35;;;;;;;6.27;100.00;99768.00;5093091;28;20028;-76
2022/02/06 11:22:08;;;;;;;18.70;5.53;;;;;;;6.33;100.00;99761.06;5084351;27;1183829;-75
2022/02/06 11:24:38;;;;;;;19.25;5.85;;;;;;;6.31;100.00;99758.41;5089844;28;20032;-74
2022/02/06 11:27:07;;;;;;;18.15;5.28;;;;;;;6.38;100.00;99754.94;5090189;28;20034;-73
2022/02/06 11:29:33;;;;;;;17.48;5.15;;;;;;;6.38;100.00;99741.81;5090237;28;20069;-74
2022/02/06 11:31:58;;;;;;;18.13;5.63;;;;;;;6.39;100.00;99724.31;5094044;28;20089;-74
2022/02/06 11:34:25;;;;;;;18.48;5.18;;;;;;;6.41;100.00;99722.59;5093873;28;20550;-74
2022/02/06 11:46:10;;;;;;;19.45;5.35;;;;;;;6.57;100.00;99732.25;5092050;28;20165;-76
2022/02/06 11:48:38;;;;;;;18.23;5.88;;;;;;;6.59;100.00;99727.88;5090142;28;20028;-73
2022/02/06 11:51:04;;;;;;;19.85;5.97;;;;;;;6.63;100.00;99729.66;5093644;28;20016;-73
2022/02/06 11:53:37;;;;;;;20.58;7.47;;;;;;;6.70;100.00;99733.19;5089218;28;20031;-72
2022/02/06 11:56:34;;;;;;;22.50;8.07;;;;;;;6.75;100.00;99776.06;5089943;28;20027;-74
2022/02/06 11:59:11;;;;;;;23.42;8.98;;;;;;;6.81;100.00;99833.00;5093309;28;20034;-71
2022/02/06 12:01:36;;;;;;;19.75;5.15;;;;;;;6.73;100.00;99824.25;5090147;28;20400;-72
2022/02/06 12:04:17;;;;;;;18.55;4.22;;;;;;;6.44;100.00;99859.13;5093162;28;20053;-71
2022/02/06 12:06:48;;;;;;;19.80;3.80;;;;;;;6.19;100.00;99858.97;5093265;28;20036;-72
2022/02/06 12:09:20;;;;;;;22.02;3.58;;;;;;;5.94;100.00;99879.75;5093365;28;20060;-72
2022/02/06 12:12:04;;;;;;;17.67;3.00;;;;;;;5.92;100.00;99877.97;5093392;28;20397;-71
2022/02/06 12:14:36;;;;;;;19.45;3.55;;;;;;;5.72;100.00;99904.94;5093101;28;20043;-71
2022/02/06 12:17:10;;;;;;;19.08;3.00;;;;;;;5.48;100.00;99900.31;5089255;28;20427;-72
2022/02/06 12:19:36;;;;;;;19.02;3.10;;;;;;;5.31;100.00;99896.63;5089522;28;20035;-71
2022/02/06 12:22:26;;;;;;;20.55;3.05;;;;;;;5.55;100.00;99893.41;5093210;28;20044;-73
2022/02/06 12:24:52;;;;;;;18.77;2.60;;;;;;;5.31;100.00;99901.88;5091880;28;20036;-72
2022/02/06 12:27:26;;;;;;;20.40;2.72;;;;;;;5.29;100.00;99903.63;5092890;28;20024;-73
2022/02/06 12:30:00;;;;;;;18.65;2.72;;;;;;;5.25;100.00;99913.19;5092746;28;20024;-76
2022/02/06 12:32:39;;;;;;;16.75;2.70;;;;;;;5.14;100.00;99918.31;5092741;28;20466;-72
2022/02/06 12:37:54;;;;;;;18.00;2.90;;;;;;;4.95;100.00;99893.63;5091804;28;20394;-71
2022/02/06 12:40:24;;;;;;;19.48;2.95;;;;;;;5.01;100.00;99856.13;5092626;28;20027;-72
2022/02/06 12:42:57;;;;;;;18.65;3.03;;;;;;;4.99;100.00;99882.31;5092897;28;20433;-76
2022/02/06 12:45:24;;;;;;;23.58;4.53;;;;;;;4.89;100.00;99902.28;5092925;28;20024;-74
2022/02/06 12:47:53;;;;;;;22.75;4.75;;;;;;;4.88;100.00;99905.75;5092869;28;20028;-74
2022/02/06 12:50:23;;;;;;;22.30;4.50;;;;;;;4.88;100.00;99908.38;5092712;28;20028;-78
2022/02/06 12:52:51;;;;;;;24.75;4.07;;;;;;;4.95;100.00;99884.88;5092822;28;20158;-73
2022/02/06 12:55:17;;;;;;;24.88;4.03;;;;;;;4.86;100.00;99888.25;5091471;28;20031;-72
2022/02/06 12:57:45;;;;;;;21.42;3.78;;;;;;;4.95;100.00;99908.44;5091223;28;20390;-73
2022/02/06 13:00:36;;;;;;;23.55;3.70;;;;;;;5.12;100.00;99916.53;5092516;28;20035;-73
2022/02/06 13:03:22;;;;;;;23.25;3.70;;;;;;;4.99;100.00;99936.44;5087142;28;20043;-73
2022/02/06 13:06:04;;;;;;;22.23;3.33;;;;;;;4.98;100.00;99926.81;5090512;28;20539;-72
2022/02/06 13:08:36;;;;;;;22.05;4.05;;;;;;;4.79;100.00;99933.56;5092446;28;20490;-72
2022/02/06 13:11:07;;;;;;;23.27;3.50;;;;;;;4.78;100.00;99929.22;5092467;28;20024;-72
2022/02/06 13:18:52;;;;;;;26.27;4.40;;;;;;;4.74;100.00;99935.25;5088803;28;20049;-72
2022/02/06 13:26:54;;;;;;;23.33;4.05;;;;;;;4.79;100.00;99918.75;5092517;28;20036;-72
2022/02/06 13:35:23;;;;;;;24.65;4.47;;;;;;;4.94;100.00;99922.44;5028592;28;20098;-72
2022/02/06 13:37:57;;;;;;;22.67;4.30;;;;;;;4.98;100.00;99926.81;5011723;28;20025;-77
2022/02/06 13:40:28;;;;;;;24.02;4.30;;;;;;;5.06;100.00;99925.19;5029786;28;20025;-74
2022/02/06 13:43:07;;;;;;;22.85;4.20;;;;;;;5.12;100.00;99933.13;5030139;28;20029;-72
2022/02/06 13:45:35;;;;;;;25.95;4.40;;;;;;;5.11;100.00;99935.72;5026132;28;20045;-72
2022/02/06 13:48:01;;;;;;;23.60;4.55;;;;;;;5.15;100.00;99938.38;5032448;28;20026;-72
2022/02/06 13:50:28;;;;;;;23.75;4.13;;;;;;;5.10;100.00;99945.31;5033380;28;20037;-72
2022/02/06 13:53:28;;;;;;;21.55;4.00;;;;;;;5.24;100.00;99942.84;5033523;28;20133;-72
2022/02/06 13:56:01;;;;;;;21.92;4.28;;;;;;;5.19;100.00;99939.31;4969572;28;20042;-72
2022/02/06 13:58:27;;;;;;;21.25;3.72;;;;;;;5.16;100.00;99955.88;4974692;28;20061;-72
2022/02/06 14:00:55;;;;;;;24.80;3.80;;;;;;;5.22;100.00;99955.06;4974454;28;20031;-73
2022/02/06 14:03:21;;;;;;;22.80;3.70;;;;;;;5.21;100.00;99967.31;4974366;28;20155;-72
2022/02/06 14:05:51;;;;;;;21.67;3.40;;;;;;;5.13;100.00;99958.47;4974486;28;20070;-71